CheckWX is a tool to help pilots better visualize weather data.  It is not intended as a substitute for an official pre-flight weather briefing.

20:36:37 UTC

LIRA METAR
Ciampino–G. B. Pastine International Airport
Roma, Italy
Current

17 mins ago

LIRA 162020Z 03005KT 350V070 CAVOK 25/09 Q1011
Observed
Jul-16 @ 20:20 UTC
Wind
  • 030° at 5 KTS
Visibility
10,000+ meters
Flight Rules
VFR
Cloud Levels
  • Clear skies
Temperature
25°C / 77°F
Dewpoint
C / 48°F
Humidity
36%
Altimeter
29.85" Hg
Pressure
1010.92 hPa
Previous

47 mins ago

LIRA 161950Z 35008KT CAVOK 26/09 Q1011
Observed
Jul-16 @ 19:50 UTC
Wind
  • 350° at 8 KTS
Visibility
10,000+ meters
Flight Rules
VFR
Cloud Levels
  • Clear skies
Temperature
26°C / 79°F
Dewpoint
C / 48°F
Humidity
34%
Altimeter
29.85" Hg
Pressure
1010.92 hPa
Previous

1 hour ago

LIRA 161920Z 35010KT CAVOK 26/09 Q1010
Observed
Jul-16 @ 19:20 UTC
Wind
  • 350° at 10 KTS
Visibility
10,000+ meters
Flight Rules
VFR
Cloud Levels
  • Clear skies
Temperature
26°C / 79°F
Dewpoint
C / 48°F
Humidity
34%
Altimeter
29.82" Hg
Pressure
1009.92 hPa